Time;durP1;ratioP1;P1;durP2;ratioP2;P2;SDS_P1;SDS_P2;PMS_P1;PMS_P2;Temp;Humidity;BMP_temperature;BMP_pressure;BME280_temperature;BME280_humidity;BME280_pressure;Samples;Min_cycle;Max_cycle;Signal;HPM_P1;HPM_P2
2023/03/18 00:00:11;;;;;;;6.95;5.35;;;;;;;11.22;83.81;98084.22;4121161;28;20297;-48
2023/03/18 00:02:13;;;;;;;8.68;7.15;;;;;;;11.23;84.28;98082.34;4119144;28;20672;-50
2023/03/18 00:04:15;;;;;;;5.53;5.03;;;;;;;11.20;84.85;98085.59;4121088;28;20221;-50
2023/03/18 00:06:19;;;;;;;8.48;6.35;;;;;;;11.24;86.18;98089.47;4135881;28;20700;-49
2023/03/18 00:08:21;;;;;;;6.00;5.50;;;;;;;11.27;87.62;98097.97;4126559;28;20248;-50
2023/03/18 00:10:23;;;;;;;4.35;3.92;;;;;;;11.28;88.28;98087.81;4120495;28;20700;-49
2023/03/18 00:12:25;;;;;;;4.18;3.50;;;;;;;10.90;89.42;98094.41;4120107;28;20218;-49
2023/03/18 00:14:27;;;;;;;4.68;4.25;;;;;;;10.88;89.38;98093.84;4125336;28;20241;-48
2023/03/18 00:16:28;;;;;;;6.38;3.20;;;;;;;10.97;89.30;98097.75;4127465;28;20257;-48
2023/03/18 00:18:31;;;;;;;4.38;3.97;;;;;;;10.92;90.26;98091.41;4105891;28;20238;-48
2023/03/18 00:20:39;;;;;;;3.15;2.83;;;;;;;10.90;90.44;98105.34;4120038;28;20250;-49
2023/03/18 00:22:41;;;;;;;4.47;3.50;;;;;;;10.91;90.54;98093.31;4133911;28;20281;-49
2023/03/18 00:24:42;;;;;;;4.72;2.88;;;;;;;10.96;90.30;98106.22;4119522;28;20712;-49
2023/03/18 00:26:45;;;;;;;3.72;2.13;;;;;;;11.04;91.37;98103.81;4119538;28;20265;-49
2023/03/18 00:28:46;;;;;;;3.20;2.13;;;;;;;10.92;91.17;98103.19;4135696;28;20292;-49
2023/03/18 00:30:48;;;;;;;4.43;2.00;;;;;;;10.91;91.68;98114.41;4120347;28;20209;-49
2023/03/18 00:32:50;;;;;;;2.67;2.47;;;;;;;10.90;91.84;98119.03;4127808;28;20230;-49
2023/03/18 00:34:53;;;;;;;2.78;1.83;;;;;;;10.91;91.65;98125.34;4126462;28;20209;-49
2023/03/18 00:36:59;;;;;;;2.05;1.67;;;;;;;10.96;92.47;98126.22;4136910;28;20289;-49
2023/03/18 00:39:02;;;;;;;4.50;2.28;;;;;;;10.94;93.16;98136.63;4134783;28;20723;-50
2023/03/18 00:41:10;;;;;;;2.50;2.03;;;;;;;10.92;93.75;98132.47;4124945;28;20257;-49
2023/03/18 00:43:13;;;;;;;2.72;2.42;;;;;;;10.98;94.42;98131.44;4122228;28;20313;-49
2023/03/18 00:45:15;;;;;;;4.22;1.98;;;;;;;10.89;95.48;98133.81;4134370;28;20248;-49
2023/03/18 00:47:17;;;;;;;5.35;2.00;;;;;;;10.87;97.09;98128.88;4135885;28;20235;-49
2023/03/18 00:49:19;;;;;;;2.20;2.00;;;;;;;10.75;97.52;98126.31;4116115;28;20240;-49
2023/03/18 00:51:22;;;;;;;3.13;2.28;;;;;;;10.71;97.42;98132.56;4117990;28;20214;-50
2023/03/18 00:53:25;;;;;;;3.10;2.20;;;;;;;10.58;97.46;98141.19;4120729;28;20723;-49
2023/03/18 00:55:27;;;;;;;2.72;2.22;;;;;;;10.73;96.87;98124.91;4119734;28;20217;-51
2023/03/18 00:57:29;;;;;;;2.85;1.92;;;;;;;10.58;98.10;98133.00;4125494;28;20206;-48
2023/03/18 00:59:32;;;;;;;2.55;2.15;;;;;;;10.39;99.65;98123.50;4123326;28;20222;-48
2023/03/18 01:01:34;;;;;;;2.65;2.08;;;;;;;10.36;100.00;98133.03;4120401;28;20306;-49
2023/03/18 01:03:36;;;;;;;5.80;1.75;;;;;;;10.35;100.00;98125.91;4102705;28;20266;-49
2023/03/18 01:05:38;;;;;;;3.53;1.80;;;;;;;10.30;100.00;98123.16;4118021;28;20282;-49
2023/03/18 01:07:40;;;;;;;3.90;1.90;;;;;;;10.34;100.00;98123.47;4133670;28;20631;-50
2023/03/18 01:09:42;;;;;;;1.90;1.80;;;;;;;10.44;100.00;98123.56;4118141;28;20211;-49
2023/03/18 01:11:44;;;;;;;1.98;1.50;;;;;;;10.11;100.00;98123.75;4116925;28;20210;-50
2023/03/18 01:13:46;;;;;;;2.40;1.80;;;;;;;10.17;100.00;98118.09;4122019;28;20226;-48
2023/03/18 01:15:49;;;;;;;1.67;1.55;;;;;;;10.28;100.00;98113.56;4125384;28;20222;-50
2023/03/18 01:17:55;;;;;;;1.90;1.50;;;;;;;10.13;100.00;98107.91;4101057;28;20334;-49
2023/03/18 01:19:56;;;;;;;2.58;2.28;;;;;;;10.09;100.00;98109.53;4121002;28;20306;-50
2023/03/18 01:21:59;;;;;;;2.63;1.70;;;;;;;10.05;100.00;98102.91;4120084;28;20769;-49
2023/03/18 01:24:01;;;;;;;2.08;1.50;;;;;;;9.98;100.00;98102.25;4122834;28;20229;-49
2023/03/18 01:26:03;;;;;;;2.45;2.03;;;;;;;10.18;100.00;98092.41;4126061;28;20288;-49
2023/03/18 01:28:05;;;;;;;1.95;1.55;;;;;;;10.14;100.00;98098.66;4116428;28;20297;-49
2023/03/18 01:30:08;;;;;;;3.42;2.03;;;;;;;10.08;100.00;98107.88;4126153;28;20646;-50
2023/03/18 01:32:09;;;;;;;3.30;1.55;;;;;;;10.21;100.00;98102.00;4120284;28;20209;-49
2023/03/18 01:34:12;;;;;;;1.52;1.42;;;;;;;10.28;100.00;98095.22;4125516;28;20226;-50
2023/03/18 01:36:14;;;;;;;1.95;1.70;;;;;;;10.21;100.00;98091.06;4125288;28;20241;-48
2023/03/18 01:38:16;;;;;;;6.82;1.80;;;;;;;9.92;100.00;98081.41;4119907;28;20242;-49
2023/03/18 01:40:19;;;;;;;2.67;1.73;;;;;;;9.98;100.00;98085.84;4139763;28;20261;-49
2023/03/18 01:42:21;;;;;;;2.00;1.63;;;;;;;9.91;100.00;98085.22;4136425;28;20637;-48
2023/03/18 01:44:24;;;;;;;2.55;1.75;;;;;;;9.95;100.00;98078.97;4120644;28;20241;-48
2023/03/18 01:46:42;;;;;;;1.55;1.45;;;;;;;9.90;100.00;98075.38;4106580;28;20215;-48
2023/03/18 01:48:43;;;;;;;2.35;1.75;;;;;;;9.93;100.00;98074.84;4121329;28;20218;-49
2023/03/18 01:50:53;;;;;;;4.57;1.80;;;;;;;10.03;100.00;98072.25;4118540;28;20213;-49
2023/03/18 01:52:58;;;;;;;13.13;1.70;;;;;;;10.17;100.00;98078.97;4128814;28;20324;-49
2023/03/18 01:55:04;;;;;;;1.63;1.52;;;;;;;10.10;100.00;98083.84;4102287;28;20203;-49
2023/03/18 01:57:06;;;;;;;1.95;1.75;;;;;;;10.12;100.00;98092.59;4105214;28;20291;-50
2023/03/18 01:59:08;;;;;;;2.20;1.98;;;;;;;10.10;100.00;98083.84;4135762;28;20313;-49
2023/03/18 02:01:29;;;;;;;2.88;1.70;;;;;;;10.14;100.00;98084.97;4123250;28;20290;-49
2023/03/18 02:03:33;;;;;;;3.13;1.75;;;;;;;10.14;100.00;98084.97;4127816;28;20232;-48
2023/03/18 02:05:36;;;;;;;1.75;1.60;;;;;;;10.14;100.00;98093.19;4130975;28;20217;-49
2023/03/18 02:07:41;;;;;;;2.05;1.77;;;;;;;10.14;100.00;98096.72;4136260;28;20242;-51
2023/03/18 02:09:47;;;;;;;3.65;2.60;;;;;;;10.17;100.00;98098.13;4122730;28;20299;-50
2023/03/18 02:11:49;;;;;;;5.68;2.05;;;;;;;10.16;100.00;98096.47;4127851;28;20214;-49
2023/03/18 02:13:51;;;;;;;3.30;1.95;;;;;;;10.14;100.00;98098.66;4113796;28;20691;-49
2023/03/18 02:16:02;;;;;;;4.70;1.95;;;;;;;10.11;100.00;98096.41;4128827;28;20714;-49
2023/03/18 02:18:08;;;;;;;7.53;2.72;;;;;;;10.13;100.00;98083.31;4121413;28;20203;-49
2023/03/18 02:20:23;;;;;;;2.47;2.25;;;;;;;10.12;100.00;98093.44;4112514;28;20249;-48
2023/03/18 02:22:29;;;;;;;4.82;2.63;;;;;;;10.09;100.00;98095.84;4137871;28;20216;-49
2023/03/18 02:24:50;;;;;;;4.18;2.38;;;;;;;10.02;100.00;98090.53;4122123;28;20290;-49
2023/03/18 02:26:58;;;;;;;2.95;2.70;;;;;;;9.98;100.00;98096.78;4138072;28;20635;-49
2023/03/18 02:29:03;;;;;;;2.00;1.85;;;;;;;10.07;100.00;98090.63;4137293;28;20206;-49
2023/03/18 02:31:10;;;;;;;4.32;2.15;;;;;;;10.03;100.00;98088.66;4139000;28;20201;-50
2023/03/18 02:33:13;;;;;;;7.47;1.80;;;;;;;9.79;100.00;98077.19;4121552;28;20324;-50
2023/03/18 02:35:15;;;;;;;4.35;2.97;;;;;;;9.73;100.00;98074.63;4128030;28;20241;-49
2023/03/18 02:37:17;;;;;;;4.28;2.22;;;;;;;9.64;100.00;98077.00;4120774;28;20253;-49
2023/03/18 02:39:20;;;;;;;3.53;2.47;;;;;;;9.67;100.00;98078.41;4125675;28;20324;-49
2023/03/18 02:41:26;;;;;;;2.13;1.90;;;;;;;9.70;100.00;98088.81;4140489;28;20225;-49
2023/03/18 02:43:31;;;;;;;3.60;2.08;;;;;;;9.75;100.00;98081.47;4128468;28;20276;-49
2023/03/18 02:45:39;;;;;;;2.50;2.30;;;;;;;9.78;100.00;98096.53;4121421;28;20302;-49
2023/03/18 02:47:43;;;;;;;3.85;2.50;;;;;;;9.81;100.00;98085.13;4113065;28;20210;-49
2023/03/18 02:49:45;;;;;;;7.00;1.80;;;;;;;9.83;100.00;98104.81;4127495;28;20253;-49
2023/03/18 02:51:48;;;;;;;2.88;1.70;;;;;;;9.86;100.00;98094.19;4127996;28;20336;-49
2023/03/18 02:53:51;;;;;;;4.57;2.03;;;;;;;9.90;100.00;98098.09;4127052;28;20238;-49
2023/03/18 02:55:53;;;;;;;2.60;1.67;;;;;;;9.46;100.00;98092.84;4120053;28;20207;-49
2023/03/18 02:57:56;;;;;;;4.60;2.00;;;;;;;9.45;100.00;98096.66;4118099;28;20218;-53
2023/03/18 02:59:57;;;;;;;3.30;2.10;;;;;;;9.49;100.00;98097.81;4127493;28;20357;-49
2023/03/18 03:02:00;;;;;;;2.75;2.08;;;;;;;9.69;100.00;98098.09;4122779;28;20302;-49
2023/03/18 03:04:02;;;;;;;2.70;1.77;;;;;;;9.62;100.00;98102.91;4127629;28;20337;-48
2023/03/18 03:06:04;;;;;;;2.40;2.20;;;;;;;9.64;100.00;98095.28;4122319;28;20290;-49
2023/03/18 03:08:09;;;;;;;5.95;2.00;;;;;;;9.59;100.00;98089.75;4127622;28;20202;-48
2023/03/18 03:10:11;;;;;;;1.50;1.40;;;;;;;9.60;100.00;98102.31;4129374;28;20249;-49
2023/03/18 03:12:13;;;;;;;4.38;1.60;;;;;;;9.57;100.00;98100.13;4120003;28;20207;-49
2023/03/18 03:14:15;;;;;;;5.80;1.92;;;;;;;9.61;100.00;98096.63;4107987;28;20448;-49
2023/03/18 03:16:17;;;;;;;3.85;1.85;;;;;;;9.57;100.00;98100.13;4136065;28;20209;-48
2023/03/18 03:18:19;;;;;;;3.53;2.40;;;;;;;9.55;100.00;98105.81;4127792;28;20214;-51
2023/03/18 03:20:22;;;;;;;4.47;1.92;;;;;;;9.57;100.00;98111.03;4120026;28;20308;-51
2023/03/18 03:22:25;;;;;;;4.00;1.50;;;;;;;9.54;100.00;98115.09;4126725;28;20233;-49
2023/03/18 03:24:27;;;;;;;2.35;1.58;;;;;;;9.53;100.00;98116.19;4121016;28;20241;-49
2023/03/18 03:26:30;;;;;;;2.63;1.83;;;;;;;9.49;100.00;98114.22;4135377;28;20202;-50
2023/03/18 03:28:32;;;;;;;2.30;1.85;;;;;;;9.52;100.00;98113.69;4121863;28;20672;-49
2023/03/18 03:30:35;;;;;;;2.03;1.92;;;;;;;9.45;100.00;98118.53;4122714;28;20266;-49
2023/03/18 03:32:38;;;;;;;1.95;1.85;;;;;;;9.52;100.00;98113.69;4135984;28;20268;-49
2023/03/18 03:34:42;;;;;;;2.92;2.08;;;;;;;9.43;100.00;98120.69;4127529;28;20210;-49
2023/03/18 03:36:43;;;;;;;2.47;2.28;;;;;;;9.39;100.00;98114.06;4137352;28;20221;-48
2023/03/18 03:38:45;;;;;;;2.63;2.17;;;;;;;9.36;100.00;98120.03;4111901;28;20277;-49
2023/03/18 03:40:47;;;;;;;3.33;2.30;;;;;;;9.38;100.00;98120.59;4118357;28;20244;-49
2023/03/18 03:42:49;;;;;;;6.32;2.20;;;;;;;9.35;100.00;98118.41;4127828;28;20316;-49
2023/03/18 03:44:51;;;;;;;4.72;1.90;;;;;;;9.26;100.00;98119.88;4128024;28;20209;-49
2023/03/18 03:46:53;;;;;;;2.85;2.08;;;;;;;9.26;100.00;98111.69;4119978;28;20210;-48
2023/03/18 03:48:55;;;;;;;4.75;2.25;;;;;;;9.28;100.00;98120.47;4136213;28;20218;-49
2023/03/18 03:50:57;;;;;;;2.22;1.85;;;;;;;9.27;100.00;98116.91;4106635;28;20292;-48
2023/03/18 03:52:59;;;;;;;2.45;1.98;;;;;;;9.25;100.00;98112.78;4121585;28;20366;-49
2023/03/18 03:55:00;;;;;;;4.65;3.15;;;;;;;9.20;100.00;98113.53;4135886;28;20658;-48
2023/03/18 03:57:03;;;;;;;3.10;1.92;;;;;;;9.21;100.00;98119.84;4118941;28;20285;-49
2023/03/18 03:59:04;;;;;;;2.03;1.90;;;;;;;9.21;100.00;98128.03;4118040;28;20599;-49
2023/03/18 04:01:07;;;;;;;2.63;2.42;;;;;;;9.24;100.00;98132.97;4120913;28;20226;-49
2023/03/18 04:03:09;;;;;;;6.30;2.38;;;;;;;9.41;100.00;98131.84;4134433;28;20249;-49
2023/03/18 04:05:12;;;;;;;5.18;2.35;;;;;;;9.30;100.00;98130.06;4118569;28;20298;-49
2023/03/18 04:07:15;;;;;;;3.72;2.78;;;;;;;9.28;100.00;98134.13;4126916;28;20323;-49
2023/03/18 04:09:16;;;;;;;8.38;2.95;;;;;;;9.27;100.00;98138.75;4103070;28;20206;-50
2023/03/18 04:11:21;;;;;;;3.35;1.90;;;;;;;9.29;100.00;98143.97;4121196;28;20202;-49
2023/03/18 04:13:23;;;;;;;2.45;2.25;;;;;;;9.28;100.00;98145.84;4126493;28;20340;-50
2023/03/18 04:15:26;;;;;;;3.40;2.20;;;;;;;9.30;100.00;98137.44;4132606;28;20272;-50
2023/03/18 04:17:28;;;;;;;3.03;2.55;;;;;;;9.17;100.00;98144.06;4121976;28;20214;-49
2023/03/18 04:19:30;;;;;;;2.65;2.45;;;;;;;9.18;100.00;98144.88;4119770;28;20660;-48
2023/03/18 04:21:32;;;;;;;6.22;2.80;;;;;;;9.23;100.00;98143.03;4125955;28;20205;-50
2023/03/18 04:23:34;;;;;;;2.95;2.55;;;;;;;9.20;100.00;98142.72;4118689;28;20321;-49
2023/03/18 04:25:36;;;;;;;3.47;2.88;;;;;;;9.23;100.00;98144.97;4120926;28;20763;-49
2023/03/18 04:27:38;;;;;;;3.30;3.00;;;;;;;9.21;100.00;98144.41;4126934;28;20245;-49
2023/03/18 04:29:39;;;;;;;3.38;2.00;;;;;;;9.38;100.00;98146.03;4118838;28;20288;-49
2023/03/18 04:31:41;;;;;;;4.82;2.28;;;;;;;9.29;100.00;98143.97;4126597;28;20276;-49
2023/03/18 04:33:46;;;;;;;3.13;2.42;;;;;;;9.34;100.00;98149.50;4125813;28;20244;-49
2023/03/18 04:35:48;;;;;;;6.97;2.45;;;;;;;9.27;100.00;98146.94;4133874;28;20327;-48
2023/03/18 04:37:50;;;;;;;4.03;2.40;;;;;;;9.29;100.00;98147.50;4126107;28;20696;-49
2023/03/18 04:39:51;;;;;;;2.80;2.13;;;;;;;9.28;100.00;98147.78;4134548;28;20233;-49
2023/03/18 04:41:55;;;;;;;3.88;2.53;;;;;;;9.32;100.00;98154.38;4120247;28;20360;-49
2023/03/18 04:44:00;;;;;;;3.30;1.90;;;;;;;9.31;100.00;98150.84;4110850;28;20286;-50
2023/03/18 04:46:02;;;;;;;3.53;2.50;;;;;;;9.40;100.00;98159.41;4118248;28;20667;-49
2023/03/18 04:48:04;;;;;;;2.78;1.92;;;;;;;9.42;100.00;98157.25;4118211;28;20218;-49
2023/03/18 04:50:09;;;;;;;2.00;1.90;;;;;;;9.31;100.00;98155.47;4119189;28;20202;-50
2023/03/18 04:52:11;;;;;;;7.85;2.90;;;;;;;9.37;100.00;98149.00;4134406;28;20237;-49
2023/03/18 04:54:13;;;;;;;4.18;2.35;;;;;;;9.24;100.00;98154.81;4104317;28;20681;-49
2023/03/18 04:56:15;;;;;;;3.35;2.40;;;;;;;9.31;100.00;98147.25;4118009;28;20206;-49
2023/03/18 04:58:17;;;;;;;2.88;2.67;;;;;;;9.26;100.00;98149.91;4118917;28;20271;-49
2023/03/18 05:00:22;;;;;;;2.72;2.08;;;;;;;9.18;100.00;98144.88;4118160;28;20325;-49
2023/03/18 05:02:24;;;;;;;2.75;2.35;;;;;;;9.16;100.00;98157.97;4115835;28;20265;-49
2023/03/18 05:04:26;;;;;;;3.30;2.25;;;;;;;9.15;100.00;98156.31;4119386;28;20657;-49
2023/03/18 05:06:30;;;;;;;4.65;2.13;;;;;;;9.26;100.00;98153.47;4133958;28;20658;-49
2023/03/18 05:08:32;;;;;;;2.00;1.90;;;;;;;9.36;100.00;98155.53;4134838;28;20663;-49
2023/03/18 05:10:34;;;;;;;2.30;2.10;;;;;;;9.23;100.00;98144.97;4108355;28;20302;-48
2023/03/18 05:12:36;;;;;;;2.88;2.60;;;;;;;9.22;100.00;98152.31;4120232;28;20234;-48
2023/03/18 05:14:37;;;;;;;2.13;2.03;;;;;;;9.27;100.00;98148.84;4126330;28;20605;-48
2023/03/18 05:16:39;;;;;;;2.33;2.13;;;;;;;9.24;100.00;98154.81;4122773;28;20225;-50
2023/03/18 05:18:41;;;;;;;2.65;2.45;;;;;;;9.25;100.00;98154.56;4121701;28;20757;-49
2023/03/18 05:20:43;;;;;;;2.75;2.53;;;;;;;9.33;100.00;98151.41;4126526;28;20244;-49
2023/03/18 05:22:44;;;;;;;2.45;2.22;;;;;;;9.21;100.00;98145.22;4126758;28;20656;-48
2023/03/18 05:24:47;;;;;;;3.67;2.63;;;;;;;9.20;100.00;98153.63;4121051;28;20210;-51
2023/03/18 05:26:49;;;;;;;4.32;1.98;;;;;;;9.33;100.00;98158.75;4125907;28;20333;-48
2023/03/18 05:28:51;;;;;;;2.55;2.00;;;;;;;9.14;100.00;98150.03;4124308;28;20218;-49
2023/03/18 05:30:53;;;;;;;2.10;1.70;;;;;;;9.18;100.00;98155.81;4134232;28;20233;-50
2023/03/18 05:32:54;;;;;;;1.88;1.77;;;;;;;9.14;100.00;98160.13;4125743;28;20755;-49
2023/03/18 05:34:56;;;;;;;2.60;1.60;;;;;;;9.09;100.00;98162.78;4120120;28;20206;-49
2023/03/18 05:36:58;;;;;;;2.35;1.80;;;;;;;9.19;100.00;98162.91;4119006;28;20712;-50
2023/03/18 05:39:00;;;;;;;2.22;1.98;;;;;;;9.08;100.00;98161.13;4118976;28;20242;-48
2023/03/18 05:41:02;;;;;;;2.50;1.67;;;;;;;9.08;100.00;98158.41;4133559;28;20229;-49
2023/03/18 05:43:04;;;;;;;3.47;1.70;;;;;;;9.12;100.00;98156.78;4128827;28;20312;-48
2023/03/18 05:45:06;;;;;;;1.77;1.65;;;;;;;9.06;100.00;98157.78;4122384;28;20242;-49
2023/03/18 05:47:09;;;;;;;3.83;1.85;;;;;;;9.03;100.00;98161.03;4121560;28;20245;-49
2023/03/18 05:49:10;;;;;;;2.65;1.58;;;;;;;9.05;100.00;98164.34;4124999;28;20210;-50
2023/03/18 05:51:12;;;;;;;3.85;2.03;;;;;;;9.05;100.00;98167.91;4126235;28;20297;-49
2023/03/18 05:53:15;;;;;;;2.70;1.60;;;;;;;8.94;99.07;98162.53;4118978;28;20249;-48
2023/03/18 05:55:17;;;;;;;3.58;1.80;;;;;;;9.01;94.77;98157.75;4119646;28;20887;-49
2023/03/18 05:57:19;;;;;;;3.13;1.65;;;;;;;8.95;94.88;98164.19;4126610;28;20261;-49
2023/03/18 05:59:22;;;;;;;1.95;1.50;;;;;;;9.08;93.02;98172.03;4132788;28;20210;-49
2023/03/18 06:01:24;;;;;;;2.03;1.40;;;;;;;9.12;91.38;98164.97;4134427;28;20226;-50
2023/03/18 06:03:26;;;;;;;1.73;1.35;;;;;;;9.02;91.55;98165.66;4117268;28;20285;-49
2023/03/18 06:05:29;;;;;;;2.65;1.77;;;;;;;9.10;94.30;98170.72;4119278;28;20652;-49
2023/03/18 06:07:32;;;;;;;1.98;1.27;;;;;;;8.98;94.78;98171.84;4103714;28;20684;-49
2023/03/18 06:09:33;;;;;;;1.77;1.40;;;;;;;8.98;95.19;98177.31;4116141;28;20580;-49
2023/03/18 06:11:39;;;;;;;2.08;1.60;;;;;;;9.03;96.08;98180.13;4126308;28;20276;-49
2023/03/18 06:13:40;;;;;;;4.45;1.73;;;;;;;8.99;96.26;98184.44;4126451;28;20237;-48
2023/03/18 06:15:42;;;;;;;8.50;1.33;;;;;;;9.01;93.82;98182.28;4123993;28;20668;-49
2023/03/18 06:17:44;;;;;;;5.47;1.35;;;;;;;9.15;90.60;98186.34;4117238;28;20258;-49
2023/03/18 06:19:47;;;;;;;1.58;1.40;;;;;;;9.08;91.76;98182.94;4117686;28;20211;-49
2023/03/18 06:21:48;;;;;;;1.98;1.30;;;;;;;9.13;89.93;98191.19;4125052;28;20284;-49
2023/03/18 06:23:50;;;;;;;3.22;2.10;;;;;;;9.10;90.39;98186.25;4137834;28;20321;-48
2023/03/18 06:25:52;;;;;;;2.50;1.48;;;;;;;9.13;89.67;98185.75;4135403;28;20206;-49
2023/03/18 06:27:54;;;;;;;2.08;1.15;;;;;;;9.19;91.18;98190.22;4119665;28;20342;-48
2023/03/18 06:29:55;;;;;;;3.67;1.42;;;;;;;9.28;87.91;98186.81;4120475;28;20325;-48
2023/03/18 06:31:57;;;;;;;1.70;1.50;;;;;;;9.33;88.12;98195.09;4123399;28;20220;-48
2023/03/18 06:33:59;;;;;;;1.17;1.00;;;;;;;9.39;87.37;98185.91;4119519;28;20296;-48
2023/03/18 06:36:03;;;;;;;9.45;1.45;;;;;;;9.56;87.83;98192.13;4120784;28;20206;-49
2023/03/18 06:38:05;;;;;;;1.00;0.90;;;;;;;9.77;85.31;98198.72;4121217;28;20207;-49
2023/03/18 06:40:08;;;;;;;4.25;1.23;;;;;;;10.06;86.59;98198.34;4122304;28;20636;-50
2023/03/18 06:42:09;;;;;;;1.75;1.35;;;;;;;10.42;88.74;98188.63;4121505;28;20206;-50
2023/03/18 06:44:12;;;;;;;1.75;1.40;;;;;;;10.91;90.49;98180.91;4129372;28;20257;-49
2023/03/18 06:46:14;;;;;;;1.65;1.10;;;;;;;11.20;83.93;98179.53;4128111;28;20268;-50
2023/03/18 06:48:16;;;;;;;2.38;1.08;;;;;;;11.39;79.77;98183.53;4135183;28;20259;-49
2023/03/18 06:50:19;;;;;;;4.22;1.48;;;;;;;11.43;76.83;98190.09;4122002;28;20217;-48
2023/03/18 06:52:22;;;;;;;1.40;1.10;;;;;;;11.74;76.10;98192.00;4135697;28;22231;-48
2023/03/18 06:54:25;;;;;;;4.25;1.38;;;;;;;12.14;75.82;98189.44;4128802;28;20210;-49
2023/03/18 06:56:26;;;;;;;1.38;0.95;;;;;;;12.34;71.29;98186.78;4127631;28;20202;-49
2023/03/18 06:58:28;;;;;;;4.55;1.23;;;;;;;12.66;71.89;98189.34;4122132;28;20297;-49
2023/03/18 07:00:30;;;;;;;2.85;1.33;;;;;;;12.81;70.73;98192.94;4136771;28;20217;-49
2023/03/18 07:02:32;;;;;;;1.25;1.13;;;;;;;13.10;70.92;98185.84;4128763;28;20228;-49
2023/03/18 07:04:34;;;;;;;1.55;1.10;;;;;;;13.40;69.85;98190.53;4129288;28;20292;-48
2023/03/18 07:06:36;;;;;;;2.50;1.33;;;;;;;13.15;65.21;98191.34;4126190;28;20238;-49
2023/03/18 07:08:38;;;;;;;3.80;1.30;;;;;;;13.73;67.66;98189.94;4129651;28;20301;-50
2023/03/18 07:10:41;;;;;;;1.10;1.00;;;;;;;13.70;64.38;98185.00;4121601;28;20385;-49
2023/03/18 07:12:42;;;;;;;2.25;1.33;;;;;;;13.56;62.26;98184.72;4126772;28;20280;-48
2023/03/18 07:14:44;;;;;;;2.90;1.15;;;;;;;13.97;64.99;98191.78;4128748;28;20218;-48
2023/03/18 07:16:46;;;;;;;3.13;1.00;;;;;;;14.09;64.80;98189.56;4127146;28;20738;-48
2023/03/18 07:18:47;;;;;;;3.65;1.20;;;;;;;13.86;64.13;98179.19;4133955;28;20300;-49
2023/03/18 07:20:49;;;;;;;3.17;1.10;;;;;;;13.87;60.79;98191.84;4122176;28;20322;-49
2023/03/18 07:22:51;;;;;;;2.03;1.20;;;;;;;13.66;62.10;98192.97;4120781;28;20234;-49
2023/03/18 07:24:53;;;;;;;1.48;0.80;;;;;;;14.48;62.61;98204.28;4103749;28;20721;-49
2023/03/18 07:26:55;;;;;;;0.90;0.90;;;;;;;13.85;58.76;98199.53;4120536;28;20238;-49
2023/03/18 07:28:56;;;;;;;4.90;0.98;;;;;;;14.22;60.14;98202.75;4121488;28;20297;-49
2023/03/18 07:30:58;;;;;;;3.40;1.08;;;;;;;15.33;60.79;98206.53;4119563;28;20294;-49
2023/03/18 07:33:01;;;;;;;1.23;0.90;;;;;;;15.60;59.68;98195.81;4127763;28;20230;-49
2023/03/18 07:35:04;;;;;;;1.50;0.90;;;;;;;14.81;56.23;98191.72;4125557;28;20209;-50
2023/03/18 07:37:06;;;;;;;1.92;0.80;;;;;;;14.04;56.78;98197.81;4125928;28;20224;-49
2023/03/18 07:39:09;;;;;;;2.78;1.17;;;;;;;14.54;57.44;98203.16;4117968;28;20210;-48
2023/03/18 07:41:16;;;;;;;1.35;1.20;;;;;;;14.33;56.22;98201.63;4119337;28;20321;-50
2023/03/18 07:43:17;;;;;;;5.70;1.30;;;;;;;14.02;56.51;98207.44;4126938;28;20309;-48
2023/03/18 07:45:19;;;;;;;2.00;1.10;;;;;;;13.50;56.56;98196.84;4120508;28;20225;-48
2023/03/18 07:47:22;;;;;;;2.05;1.10;;;;;;;13.85;59.46;98199.53;4126103;28;20298;-50
2023/03/18 07:49:24;;;;;;;1.27;1.00;;;;;;;14.08;55.80;98209.94;4118629;28;20242;-48
2023/03/18 07:51:26;;;;;;;1.58;1.10;;;;;;;14.43;57.21;98212.56;4104630;28;20215;-49
2023/03/18 07:53:28;;;;;;;1.48;0.93;;;;;;;14.80;56.28;98207.44;4117592;28;20313;-49
2023/03/18 07:55:31;;;;;;;1.67;1.05;;;;;;;14.83;54.73;98206.84;4135038;28;20212;-49
2023/03/18 07:57:34;;;;;;;1.25;0.70;;;;;;;14.54;53.98;98205.91;4104746;28;20298;-48
2023/03/18 07:59:36;;;;;;;2.15;0.90;;;;;;;14.25;54.41;98213.22;4119715;28;20300;-49
2023/03/18 08:01:38;;;;;;;1.35;1.10;;;;;;;14.31;53.81;98214.81;4117768;28;20253;-48
2023/03/18 08:03:41;;;;;;;1.40;0.98;;;;;;;14.27;52.61;98224.75;4122823;28;20664;-48
2023/03/18 08:05:43;;;;;;;1.52;0.93;;;;;;;14.54;52.43;98222.44;4106702;28;20234;-47
2023/03/18 08:07:45;;;;;;;1.63;0.90;;;;;;;14.76;52.67;98228.38;4118683;28;20297;-49
2023/03/18 08:09:46;;;;;;;1.50;0.90;;;;;;;15.13;52.07;98228.72;4135732;28;20224;-48
2023/03/18 08:11:48;;;;;;;1.65;0.82;;;;;;;15.00;50.90;98228.50;4133170;28;20228;-49
2023/03/18 08:13:51;;;;;;;4.35;1.20;;;;;;;14.69;51.21;98227.88;4119723;28;20258;-48
2023/03/18 08:15:55;;;;;;;1.50;1.15;;;;;;;15.59;51.76;98220.94;4109547;28;20740;-49
2023/03/18 08:17:56;;;;;;;2.03;1.15;;;;;;;15.86;50.70;98226.75;4115126;28;20325;-48
2023/03/18 08:19:58;;;;;;;1.15;0.82;;;;;;;16.04;49.93;98218.53;4120614;28;20233;-49
2023/03/18 08:22:00;;;;;;;1.05;1.00;;;;;;;16.24;48.76;98229.34;4121260;28;20229;-48
2023/03/18 08:24:02;;;;;;;1.70;1.00;;;;;;;16.54;50.20;98231.81;4124423;28;20233;-48
2023/03/18 08:26:04;;;;;;;0.82;0.75;;;;;;;16.78;48.60;98240.91;4120829;28;20677;-49
2023/03/18 08:28:06;;;;;;;2.85;0.85;;;;;;;16.64;48.74;98228.91;4117707;28;20293;-48
2023/03/18 08:30:09;;;;;;;3.10;1.35;;;;;;;16.57;49.69;98233.16;4136164;28;20213;-49
2023/03/18 08:32:11;;;;;;;1.58;1.00;;;;;;;15.80;48.36;98238.94;4118500;28;20221;-48
2023/03/18 08:34:13;;;;;;;1.45;0.90;;;;;;;15.80;48.62;98239.78;4125144;28;20234;-48
2023/03/18 08:36:15;;;;;;;1.92;0.90;;;;;;;15.91;50.85;98241.31;4120536;28;20218;-48
2023/03/18 08:38:17;;;;;;;1.10;0.88;;;;;;;15.46;48.19;98244.50;4126821;28;20214;-46
2023/03/18 08:40:19;;;;;;;7.13;0.95;;;;;;;15.00;49.16;98245.03;4118545;28;20293;-48
2023/03/18 08:42:21;;;;;;;3.35;0.90;;;;;;;15.09;49.60;98237.84;4119507;28;20783;-48
2023/03/18 08:44:23;;;;;;;1.48;1.00;;;;;;;14.92;50.20;98243.72;4131837;28;20206;-48
2023/03/18 08:46:25;;;;;;;2.25;1.00;;;;;;;15.19;52.06;98237.75;4111447;28;20333;-49
2023/03/18 08:48:26;;;;;;;2.95;0.98;;;;;;;16.23;50.41;98238.75;4120090;28;20246;-49
2023/03/18 08:50:28;;;;;;;1.92;1.30;;;;;;;16.47;49.18;98239.63;4132899;28;20237;-49
2023/03/18 08:52:31;;;;;;;2.05;0.77;;;;;;;16.10;48.21;98241.41;4116995;28;20618;-48
2023/03/18 08:54:32;;;;;;;3.17;0.80;;;;;;;16.13;48.07;98233.38;4133427;28;20252;-49
2023/03/18 08:56:34;;;;;;;3.17;1.38;;;;;;;16.05;46.75;98231.25;4104733;28;20222;-48
2023/03/18 08:58:36;;;;;;;1.58;0.90;;;;;;;16.58;48.46;98230.13;4120786;28;20295;-46
2023/03/18 09:00:40;;;;;;;3.33;1.48;;;;;;;16.88;46.52;98235.22;4136146;28;20213;-47
2023/03/18 09:02:42;;;;;;;1.20;0.90;;;;;;;16.44;48.00;98239.41;4117186;28;20242;-47
2023/03/18 09:04:43;;;;;;;1.20;0.98;;;;;;;16.98;48.25;98228.75;4110741;28;20245;-48
2023/03/18 09:06:47;;;;;;;2.85;0.90;;;;;;;16.42;45.56;98236.13;4133181;28;20236;-46
2023/03/18 09:08:49;;;;;;;1.42;0.80;;;;;;;15.90;47.54;98233.34;4126659;28;20207;-46
2023/03/18 09:10:52;;;;;;;1.33;0.90;;;;;;;15.87;47.86;98234.75;4118953;28;20740;-47
2023/03/18 09:12:54;;;;;;;1.67;0.85;;;;;;;15.90;48.31;98231.38;4119178;28;20230;-47
2023/03/18 09:14:56;;;;;;;2.83;0.90;;;;;;;16.23;48.50;98226.91;4119557;28;20218;-46
2023/03/18 09:16:58;;;;;;;1.05;0.80;;;;;;;15.83;47.58;98219.88;4133708;28;20244;-47
2023/03/18 09:19:00;;;;;;;1.33;0.85;;;;;;;16.33;48.70;98216.56;4117125;28;20214;-46
2023/03/18 09:21:03;;;;;;;2.97;1.00;;;;;;;16.28;47.85;98218.53;4100155;28;20274;-46
2023/03/18 09:23:06;;;;;;;1.90;0.80;;;;;;;16.24;46.64;98212.78;4130483;28;20230;-46
2023/03/18 09:25:08;;;;;;;1.52;0.75;;;;;;;16.43;47.84;98222.00;4133910;28;20806;-46
2023/03/18 09:27:11;;;;;;;1.75;0.70;;;;;;;16.28;46.65;98216.63;4118814;28;20301;-47
2023/03/18 09:29:13;;;;;;;1.38;0.90;;;;;;;15.65;46.87;98222.53;4127359;28;20281;-46
2023/03/18 09:31:14;;;;;;;2.70;1.00;;;;;;;15.78;47.56;98219.94;4130779;28;20217;-49
2023/03/18 09:33:16;;;;;;;0.60;0.60;;;;;;;15.80;47.38;98225.97;4132272;28;20230;-48
2023/03/18 09:35:18;;;;;;;2.72;1.30;;;;;;;15.96;47.89;98216.41;4115865;28;20218;-48
2023/03/18 09:37:20;;;;;;;2.10;1.10;;;;;;;16.16;47.30;98221.72;4126433;28;20692;-47